Time;durP1;ratioP1;P1;durP2;ratioP2;P2;SDS_P1;SDS_P2;PMS_P1;PMS_P2;Temp;Humidity;BMP_temperature;BMP_pressure;BME280_temperature;BME280_humidity;BME280_pressure;Samples;Min_cycle;Max_cycle;Signal;HPM_P1;HPM_P2
2023/08/08 04:02:15;;;;;;;1.03;1.00;;;13.20;99.90;;;;;;5086206;23;20503;-70
2023/08/08 04:04:42;;;;;;;1.10;1.10;;;13.20;99.90;;;;;;4905925;29;20542;-70
2023/08/08 04:07:08;;;;;;;1.23;0.73;;;13.30;99.90;;;;;;4907397;29;20494;-71
2023/08/08 04:09:35;;;;;;;1.10;1.10;;;13.30;99.90;;;;;;4905879;29;20477;-71
2023/08/08 04:12:06;;;;;;;0.80;0.80;;;13.30;99.90;;;;;;4899068;29;20502;-72
2023/08/08 04:14:32;;;;;;;0.80;0.80;;;13.30;99.90;;;;;;4899617;29;20483;-72
2023/08/08 04:16:59;;;;;;;2.10;2.00;;;13.30;99.90;;;;;;4918050;23;20505;-71
2023/08/08 04:19:27;;;;;;;1.53;1.53;;;13.30;99.90;;;;;;4916818;29;20471;-71
2023/08/08 04:21:54;;;;;;;0.33;0.33;;;13.30;99.90;;;;;;4918693;29;20483;-71
2023/08/08 04:24:20;;;;;;;0.87;0.87;;;13.30;99.90;;;;;;4912016;29;20476;-70
2023/08/08 04:26:47;;;;;;;1.13;0.93;;;13.30;99.90;;;;;;4905359;29;20518;-71
2023/08/08 04:29:14;;;;;;;0.43;0.43;;;13.30;99.90;;;;;;4897128;29;20475;-71
2023/08/08 04:31:41;;;;;;;0.63;0.63;;;13.30;99.90;;;;;;4906523;29;20478;-70
2023/08/08 04:34:08;;;;;;;5.73;1.07;;;13.30;99.90;;;;;;4898173;29;20475;-71
2023/08/08 04:36:36;;;;;;;1.50;1.40;;;13.40;99.90;;;;;;4900810;29;20506;-71
2023/08/08 04:39:02;;;;;;;1.10;0.93;;;13.30;99.90;;;;;;4908578;29;20470;-71
2023/08/08 04:41:29;;;;;;;5.80;1.47;;;13.40;99.90;;;;;;4899749;29;20966;-70
2023/08/08 04:43:56;;;;;;;1.90;0.80;;;13.40;99.90;;;;;;4890328;29;20664;-71
2023/08/08 04:46:23;;;;;;;0.97;0.97;;;13.40;99.90;;;;;;4900837;29;21218;-71
2023/08/08 04:48:49;;;;;;;0.90;0.90;;;13.50;99.90;;;;;;4902472;29;20458;-71
2023/08/08 04:51:16;;;;;;;1.47;1.37;;;13.50;99.90;;;;;;4899303;29;20506;-72
2023/08/08 04:53:44;;;;;;;1.37;1.37;;;13.60;99.90;;;;;;4892827;29;20463;-71
2023/08/08 04:56:11;;;;;;;1.23;1.20;;;13.60;99.90;;;;;;4897782;29;21036;-70
2023/08/08 04:58:38;;;;;;;2.00;1.20;;;13.70;99.90;;;;;;4898500;29;20484;-70
2023/08/08 05:01:04;;;;;;;0.80;0.80;;;13.70;99.90;;;;;;4900052;29;20471;-70
2023/08/08 05:03:31;;;;;;;11.73;1.80;;;13.70;99.90;;;;;;4899596;29;20491;-69
2023/08/08 05:05:59;;;;;;;0.73;0.73;;;13.80;99.90;;;;;;4887917;29;20999;-70
2023/08/08 05:08:26;;;;;;;0.80;0.80;;;13.80;99.90;;;;;;4903104;29;20526;-69
2023/08/08 05:10:54;;;;;;;0.80;0.67;;;13.80;99.90;;;;;;4897415;29;20482;-71
2023/08/08 05:13:21;;;;;;;7.10;2.00;;;13.90;99.90;;;;;;4897889;29;20954;-69
2023/08/08 05:15:48;;;;;;;2.00;1.90;;;14.00;99.90;;;;;;4895065;29;20476;-70
2023/08/08 05:18:14;;;;;;;3.13;1.20;;;14.00;99.90;;;;;;4899136;29;20475;-70
2023/08/08 05:20:41;;;;;;;1.27;1.07;;;14.10;99.90;;;;;;4900085;29;20474;-72
2023/08/08 05:23:08;;;;;;;1.00;1.00;;;14.20;99.90;;;;;;4893784;29;20495;-71
2023/08/08 05:25:34;;;;;;;1.07;1.07;;;14.30;99.90;;;;;;4894371;29;20475;-71
2023/08/08 05:28:02;;;;;;;0.83;0.83;;;14.30;99.90;;;;;;4901973;29;20494;-72
2023/08/08 05:30:29;;;;;;;1.17;0.97;;;14.50;99.90;;;;;;4897152;29;20494;-71
2023/08/08 05:32:56;;;;;;;1.93;1.10;;;14.60;99.90;;;;;;4895842;29;20494;-69
2023/08/08 05:35:23;;;;;;;4.10;1.90;;;14.60;99.90;;;;;;4898099;29;20531;-67
2023/08/08 05:37:49;;;;;;;1.40;1.00;;;14.60;99.90;;;;;;4893930;29;20487;-66
2023/08/08 05:40:16;;;;;;;1.27;0.90;;;14.70;99.90;;;;;;4892331;29;20475;-70
2023/08/08 05:42:43;;;;;;;2.00;1.13;;;14.70;99.90;;;;;;4894628;29;20597;-73
2023/08/08 05:45:11;;;;;;;1.00;1.00;;;14.70;99.90;;;;;;4895895;29;20471;-70
2023/08/08 05:47:37;;;;;;;0.87;0.87;;;14.70;99.90;;;;;;4905651;29;20498;-70
2023/08/08 05:50:04;;;;;;;0.83;0.83;;;14.70;99.90;;;;;;4905623;29;20467;-70
2023/08/08 05:52:31;;;;;;;0.70;0.70;;;14.70;99.90;;;;;;4893698;29;20471;-68
2023/08/08 05:54:59;;;;;;;1.07;1.07;;;14.80;99.90;;;;;;4898585;29;20473;-70
2023/08/08 05:57:26;;;;;;;1.20;1.03;;;14.90;99.90;;;;;;4904164;29;20517;-70
2023/08/08 05:59:53;;;;;;;1.33;1.20;;;15.10;99.90;;;;;;4898103;29;20471;-70
2023/08/08 06:02:21;;;;;;;0.80;0.80;;;15.30;99.90;;;;;;4895805;29;20900;-70
2023/08/08 06:04:48;;;;;;;0.80;0.80;;;15.50;99.90;;;;;;4898884;29;20476;-70
2023/08/08 06:07:14;;;;;;;0.67;0.67;;;15.50;99.90;;;;;;4901055;29;20582;-70
2023/08/08 06:09:42;;;;;;;1.57;1.47;;;15.60;99.90;;;;;;4909026;29;20497;-70
2023/08/08 06:12:10;;;;;;;0.60;0.60;;;15.60;99.90;;;;;;4905923;29;20471;-68
2023/08/08 06:14:36;;;;;;;0.90;0.90;;;15.60;99.90;;;;;;4906334;29;20984;-68
2023/08/08 06:17:03;;;;;;;0.87;0.87;;;15.60;99.90;;;;;;4905225;29;20502;-68
2023/08/08 06:19:31;;;;;;;1.20;1.20;;;15.60;99.90;;;;;;4896814;29;20994;-69
2023/08/08 06:21:58;;;;;;;1.27;1.27;;;15.60;99.90;;;;;;4907445;29;20538;-68
2023/08/08 06:24:25;;;;;;;0.80;0.80;;;15.70;99.90;;;;;;4907858;29;20464;-71
2023/08/08 06:26:51;;;;;;;2.10;1.10;;;15.80;99.90;;;;;;4900815;29;20525;-70
2023/08/08 06:29:18;;;;;;;1.07;1.07;;;15.70;99.90;;;;;;4907335;29;20477;-69
2023/08/08 06:31:45;;;;;;;1.50;1.50;;;15.70;99.90;;;;;;4893001;29;20478;-72
2023/08/08 06:34:11;;;;;;;2.93;1.60;;;15.70;99.90;;;;;;4892672;29;20475;-69
2023/08/08 06:36:39;;;;;;;1.97;1.87;;;15.70;99.90;;;;;;4897385;29;20491;-69
2023/08/08 06:39:06;;;;;;;1.43;1.43;;;15.80;99.90;;;;;;4910069;29;20845;-69
2023/08/08 06:41:33;;;;;;;1.30;1.30;;;16.10;99.90;;;;;;4897375;29;20542;-70
2023/08/08 06:44:00;;;;;;;1.10;1.10;;;16.50;99.90;;;;;;4903289;29;20574;-69
2023/08/08 06:46:26;;;;;;;0.70;0.70;;;16.90;99.90;;;;;;4894933;29;20495;-71
2023/08/08 06:48:56;;;;;;;1.20;1.20;;;17.00;99.90;;;;;;4900625;29;20475;-69
2023/08/08 06:51:24;;;;;;;1.63;1.33;;;16.90;99.90;;;;;;4900506;29;20475;-69
2023/08/08 06:53:52;;;;;;;1.80;1.10;;;16.90;99.90;;;;;;4909076;29;21013;-72
2023/08/08 06:56:19;;;;;;;1.10;0.90;;;17.20;99.90;;;;;;4901033;29;20491;-70
2023/08/08 06:58:46;;;;;;;1.40;0.90;;;17.40;99.90;;;;;;4895503;29;20845;-68
2023/08/08 07:01:13;;;;;;;0.70;0.70;;;17.70;99.90;;;;;;4909069;29;20464;-71
2023/08/08 07:03:39;;;;;;;1.90;1.30;;;18.10;99.90;;;;;;4902607;29;21039;-69
2023/08/08 07:06:06;;;;;;;0.80;0.80;;;18.80;99.90;;;;;;4896349;29;20515;-69
2023/08/08 07:08:33;;;;;;;0.73;0.73;;;19.10;99.90;;;;;;4898214;29;20524;-70
2023/08/08 07:11:01;;;;;;;0.80;0.80;;;18.90;99.90;;;;;;4899465;29;20472;-69
2023/08/08 07:13:28;;;;;;;0.87;0.87;;;18.80;99.90;;;;;;4897149;29;20478;-69
2023/08/08 07:15:54;;;;;;;1.03;1.00;;;18.80;99.90;;;;;;4895257;29;20481;-70
2023/08/08 07:18:21;;;;;;;1.07;0.97;;;18.70;99.90;;;;;;4895433;29;20478;-69
2023/08/08 07:20:49;;;;;;;2.40;0.87;;;18.80;99.90;;;;;;4897983;29;20465;-70
2023/08/08 07:23:16;;;;;;;0.90;0.90;;;18.60;99.90;;;;;;4905117;29;20515;-70
2023/08/08 07:25:42;;;;;;;1.20;1.20;;;18.60;99.90;;;;;;4902522;29;20477;-68
2023/08/08 07:28:10;;;;;;;1.60;0.87;;;18.60;99.90;;;;;;4897128;29;20478;-71
2023/08/08 07:30:37;;;;;;;1.60;0.70;;;19.00;99.90;;;;;;4904629;29;20579;-71
2023/08/08 07:33:04;;;;;;;0.70;0.70;;;19.00;99.90;;;;;;4892794;29;20478;-70
2023/08/08 07:35:30;;;;;;;0.90;0.90;;;18.70;99.90;;;;;;4896673;29;20969;-68
2023/08/08 07:37:57;;;;;;;0.73;0.73;;;18.60;99.90;;;;;;4897692;29;20897;-71
2023/08/08 07:40:24;;;;;;;2.13;1.00;;;18.70;99.90;;;;;;4897039;29;20826;-70
2023/08/08 07:42:50;;;;;;;0.60;0.60;;;18.50;99.90;;;;;;4901766;29;21225;-69
2023/08/08 07:45:19;;;;;;;1.17;1.10;;;18.60;99.90;;;;;;4899509;29;20478;-69
2023/08/08 07:47:46;;;;;;;0.97;0.97;;;18.30;99.90;;;;;;4888130;29;20875;-69
2023/08/08 07:50:13;;;;;;;0.90;0.90;;;18.20;99.90;;;;;;4893653;29;20471;-69
2023/08/08 07:52:41;;;;;;;0.73;0.73;;;18.10;99.90;;;;;;4891351;29;20853;-70
2023/08/08 07:55:08;;;;;;;0.40;0.40;;;18.00;99.90;;;;;;4899652;29;20480;-69
2023/08/08 07:57:35;;;;;;;0.83;0.83;;;17.90;99.90;;;;;;4899912;29;20963;-69
2023/08/08 08:00:07;;;;;;;0.97;0.97;;;17.80;99.90;;;;;;4903490;29;20467;-70
2023/08/08 08:02:36;;;;;;;0.83;0.77;;;17.80;99.90;;;;;;4897363;29;20875;-70
2023/08/08 08:05:05;;;;;;;0.93;0.50;;;17.70;99.90;;;;;;4896270;29;20470;-70
2023/08/08 08:07:31;;;;;;;2.43;0.87;;;17.60;99.90;;;;;;4900090;29;20605;-70
2023/08/08 08:09:58;;;;;;;1.23;0.60;;;17.60;99.90;;;;;;4902704;29;20799;-71
2023/08/08 08:12:25;;;;;;;0.50;0.50;;;17.80;99.90;;;;;;4897118;29;20480;-68
2023/08/08 08:14:52;;;;;;;0.60;0.60;;;17.90;99.90;;;;;;4904639;29;21012;-68
2023/08/08 08:17:18;;;;;;;0.40;0.40;;;18.10;99.90;;;;;;4900601;29;20506;-71
2023/08/08 08:19:47;;;;;;;0.80;0.80;;;18.30;99.90;;;;;;4896680;29;20541;-72
2023/08/08 08:22:13;;;;;;;0.60;0.60;;;18.60;99.90;;;;;;4901466;29;20516;-70
2023/08/08 08:24:40;;;;;;;0.80;0.80;;;18.70;99.90;;;;;;4896778;29;20496;-69
2023/08/08 08:27:07;;;;;;;0.60;0.60;;;18.60;99.90;;;;;;4899934;29;20506;-71
2023/08/08 08:29:34;;;;;;;0.37;0.37;;;18.70;99.90;;;;;;4898678;29;20501;-70
2023/08/08 08:32:00;;;;;;;1.77;0.60;;;18.60;99.90;;;;;;4899553;29;20495;-69
2023/08/08 08:34:27;;;;;;;0.50;0.50;;;18.50;99.90;;;;;;4897927;29;20469;-72
2023/08/08 08:36:55;;;;;;;0.70;0.70;;;18.40;99.90;;;;;;4897311;29;20499;-69
2023/08/08 08:39:22;;;;;;;0.50;0.50;;;18.30;99.90;;;;;;4892488;29;20604;-69
2023/08/08 08:41:54;;;;;;;0.50;0.50;;;18.30;99.90;;;;;;4887310;29;20484;-69
2023/08/08 08:44:22;;;;;;;2.83;0.70;;;18.20;99.90;;;;;;4888121;29;20531;-69
2023/08/08 08:46:52;;;;;;;0.67;0.67;;;18.10;99.90;;;;;;4887664;29;20496;-69
2023/08/08 08:49:22;;;;;;;1.90;1.10;;;17.90;99.90;;;;;;4886255;29;20476;-71
2023/08/08 08:51:49;;;;;;;1.07;0.70;;;17.70;99.90;;;;;;4887147;29;20471;-70
2023/08/08 08:54:19;;;;;;;0.77;0.77;;;17.60;99.90;;;;;;4887391;29;20979;-68
2023/08/08 08:56:46;;;;;;;0.50;0.50;;;17.60;99.90;;;;;;4893813;29;20578;-70
2023/08/08 08:59:12;;;;;;;3.93;0.80;;;17.60;99.90;;;;;;4905526;29;20495;-69
2023/08/08 09:01:40;;;;;;;2.57;0.87;;;17.60;99.90;;;;;;4895964;29;21002;-69
2023/08/08 09:04:09;;;;;;;4.53;1.10;;;17.50;99.90;;;;;;4898904;29;21033;-70
2023/08/08 09:06:38;;;;;;;1.30;0.70;;;17.30;99.90;;;;;;4896990;29;20515;-69
2023/08/08 09:09:05;;;;;;;0.77;0.77;;;17.10;99.90;;;;;;4890693;29;20475;-68
2023/08/08 09:11:33;;;;;;;0.40;0.40;;;17.00;99.90;;;;;;4892247;29;20475;-70
2023/08/08 09:14:02;;;;;;;0.43;0.43;;;16.80;99.90;;;;;;4898429;29;20468;-68
2023/08/08 09:16:29;;;;;;;1.00;1.00;;;16.80;99.90;;;;;;4877023;29;20507;-69
2023/08/08 09:18:56;;;;;;;0.30;0.30;;;16.70;99.90;;;;;;4888945;29;20866;-69
2023/08/08 09:21:22;;;;;;;0.30;0.30;;;16.70;99.90;;;;;;4887334;29;20503;-69
2023/08/08 09:23:49;;;;;;;0.30;0.30;;;16.70;99.90;;;;;;4889635;29;20574;-69
2023/08/08 09:26:17;;;;;;;0.47;0.47;;;16.60;99.90;;;;;;4888427;29;20523;-69
2023/08/08 09:28:45;;;;;;;0.40;0.40;;;16.60;99.90;;;;;;4885149;29;20938;-68
2023/08/08 09:31:12;;;;;;;0.50;0.50;;;16.60;99.90;;;;;;4885772;29;20467;-68
2023/08/08 09:33:40;;;;;;;0.50;0.50;;;16.70;99.90;;;;;;4884792;29;20831;-68
2023/08/08 09:36:07;;;;;;;0.50;0.40;;;16.80;99.90;;;;;;4895662;29;20499;-68
2023/08/08 09:38:34;;;;;;;0.30;0.30;;;16.90;99.90;;;;;;4887833;29;20566;-68
2023/08/08 09:41:00;;;;;;;0.60;0.60;;;17.10;99.90;;;;;;4885599;29;20472;-69
2023/08/08 09:43:28;;;;;;;0.40;0.40;;;17.40;99.90;;;;;;4885640;29;20499;-68
2023/08/08 09:45:56;;;;;;;0.30;0.30;;;17.60;99.90;;;;;;4886080;29;20536;-69
2023/08/08 09:48:24;;;;;;;3.80;0.63;;;17.50;99.90;;;;;;4886464;29;20470;-70
2023/08/08 09:50:51;;;;;;;0.50;0.50;;;17.60;99.90;;;;;;4886090;29;20481;-73
2023/08/08 09:53:19;;;;;;;0.30;0.30;;;17.80;99.90;;;;;;4886694;29;20478;-68
2023/08/08 09:55:46;;;;;;;0.60;0.60;;;18.10;99.90;;;;;;4890346;29;20485;-70
2023/08/08 09:58:14;;;;;;;0.60;0.30;;;18.30;99.90;;;;;;4892304;29;20483;-68
2023/08/08 10:00:42;;;;;;;0.60;0.60;;;18.30;99.90;;;;;;4899242;29;20506;-70
2023/08/08 10:03:10;;;;;;;0.40;0.40;;;18.20;99.90;;;;;;4902487;29;20821;-69
2023/08/08 10:05:38;;;;;;;0.77;0.47;;;18.10;99.90;;;;;;4894133;29;20465;-71
2023/08/08 10:08:05;;;;;;;0.50;0.50;;;18.00;99.90;;;;;;4894330;29;20579;-69
2023/08/08 10:10:33;;;;;;;0.50;0.50;;;17.90;99.90;;;;;;4890366;29;20856;-69
2023/08/08 10:13:00;;;;;;;0.40;0.40;;;17.70;99.90;;;;;;4902736;29;20811;-70
2023/08/08 10:15:27;;;;;;;0.40;0.40;;;17.40;99.90;;;;;;4894823;29;20456;-70
2023/08/08 10:17:56;;;;;;;0.50;0.50;;;17.10;99.90;;;;;;4901297;29;20871;-69
2023/08/08 10:20:25;;;;;;;1.07;0.40;;;16.50;99.90;;;;;;4901972;29;20492;-69
2023/08/08 10:22:54;;;;;;;2.83;0.67;;;15.80;99.90;;;;;;4893539;29;20566;-69
2023/08/08 10:25:26;;;;;;;1.10;0.70;;;15.50;99.90;;;;;;4906883;29;21055;-68
2023/08/08 10:28:04;;;;;;;0.50;0.50;;;15.30;99.90;;;;;;4901698;29;20498;-68
2023/08/08 10:30:31;;;;;;;0.40;0.40;;;15.20;99.90;;;;;;4895944;29;20467;-69
2023/08/08 10:33:04;;;;;;;0.63;0.63;;;15.30;99.90;;;;;;4889771;29;20471;-69
2023/08/08 10:35:38;;;;;;;0.50;0.50;;;15.30;99.90;;;;;;4898666;29;20542;-69
2023/08/08 10:38:10;;;;;;;0.93;0.93;;;15.30;99.90;;;;;;4892720;29;20522;-70
2023/08/08 10:40:43;;;;;;;0.20;0.20;;;15.20;99.90;;;;;;4893074;29;20879;-69
2023/08/08 10:43:13;;;;;;;0.90;0.90;;;15.00;99.90;;;;;;4887845;29;20859;-69
2023/08/08 10:45:43;;;;;;;0.60;0.60;;;14.80;99.90;;;;;;4886186;29;20494;-69
2023/08/08 10:48:11;;;;;;;0.40;0.40;;;14.60;99.90;;;;;;4892378;29;21275;-71
2023/08/08 10:50:41;;;;;;;0.40;0.40;;;14.60;99.90;;;;;;4885087;29;20478;-68
2023/08/08 10:53:10;;;;;;;0.30;0.30;;;14.50;99.90;;;;;;4897136;29;20502;-69
2023/08/08 10:55:39;;;;;;;0.40;0.40;;;14.40;99.90;;;;;;4891662;29;20555;-70
2023/08/08 10:58:08;;;;;;;1.27;0.60;;;14.50;99.90;;;;;;4895677;29;20484;-70
2023/08/08 11:00:36;;;;;;;4.43;0.43;;;14.50;99.90;;;;;;4889125;29;21057;-68
2023/08/08 11:03:04;;;;;;;0.40;0.40;;;14.60;99.90;;;;;;4885434;29;20485;-68
2023/08/08 11:05:32;;;;;;;0.30;0.30;;;14.60;99.90;;;;;;4895480;29;20487;-68
2023/08/08 11:08:01;;;;;;;0.37;0.37;;;14.60;99.90;;;;;;4896083;29;20495;-68
2023/08/08 11:10:30;;;;;;;0.20;0.20;;;14.70;99.90;;;;;;4898205;29;20958;-69
2023/08/08 11:12:58;;;;;;;0.60;0.60;;;14.90;99.90;;;;;;4895804;29;20568;-69
2023/08/08 11:15:26;;;;;;;0.23;0.23;;;14.90;99.90;;;;;;4880392;29;20460;-70
2023/08/08 11:17:54;;;;;;;0.20;0.20;;;15.20;99.90;;;;;;4892528;29;20535;-69
2023/08/08 11:20:21;;;;;;;0.30;0.30;;;15.40;99.90;;;;;;4902245;29;20481;-70
2023/08/08 11:22:53;;;;;;;0.40;0.40;;;15.60;99.90;;;;;;4900452;29;20456;-69
2023/08/08 11:25:21;;;;;;;0.50;0.50;;;15.90;99.90;;;;;;4895158;29;20527;-70
2023/08/08 11:27:52;;;;;;;0.37;0.37;;;16.20;99.90;;;;;;4895559;29;20499;-69
2023/08/08 11:30:19;;;;;;;1.07;0.70;;;16.20;99.90;;;;;;4899484;29;21377;-69
2023/08/08 11:32:47;;;;;;;0.40;0.40;;;16.10;99.90;;;;;;4902675;29;20454;-70
2023/08/08 11:35:16;;;;;;;0.37;0.37;;;16.00;99.90;;;;;;4890197;29;20496;-69
2023/08/08 11:37:43;;;;;;;0.30;0.30;;;16.10;99.90;;;;;;4894483;29;21041;-69
2023/08/08 11:40:12;;;;;;;0.50;0.43;;;16.10;99.90;;;;;;4904923;29;20479;-70
2023/08/08 11:42:41;;;;;;;2.33;0.50;;;16.20;99.90;;;;;;4908195;29;20470;-69
2023/08/08 11:45:09;;;;;;;0.70;0.43;;;16.30;99.90;;;;;;4898832;29;20523;-68
2023/08/08 11:47:38;;;;;;;0.40;0.40;;;16.20;99.90;;;;;;4892402;29;20495;-67
2023/08/08 11:50:06;;;;;;;0.40;0.40;;;16.20;99.90;;;;;;4898863;29;20476;-68
2023/08/08 11:52:33;;;;;;;0.30;0.30;;;16.20;99.90;;;;;;4895592;29;20476;-68
2023/08/08 11:55:00;;;;;;;0.30;0.30;;;16.30;99.90;;;;;;4901933;29;21117;-69
2023/08/08 11:57:28;;;;;;;0.97;0.30;;;16.40;99.90;;;;;;4897059;29;20494;-69
2023/08/08 11:59:56;;;;;;;0.97;0.40;;;16.40;99.90;;;;;;4896848;29;20981;-68
2023/08/08 12:02:23;;;;;;;0.40;0.40;;;16.50;99.90;;;;;;4905220;29;20822;-69
2023/08/08 12:04:50;;;;;;;3.33;0.47;;;16.70;99.90;;;;;;4883373;29;20483;-69
2023/08/08 12:07:19;;;;;;;0.20;0.20;;;16.90;99.90;;;;;;4889918;29;20490;-68
2023/08/08 12:09:47;;;;;;;0.40;0.40;;;17.20;99.90;;;;;;4899811;29;20470;-67
2023/08/08 12:12:14;;;;;;;0.50;0.50;;;17.40;99.90;;;;;;4894877;29;20943;-70
2023/08/08 12:14:43;;;;;;;0.30;0.30;;;17.60;99.90;;;;;;4910581;29;20538;-68
2023/08/08 12:17:12;;;;;;;0.80;0.30;;;17.70;99.90;;;;;;4904423;29;20495;-68
2023/08/08 12:19:46;;;;;;;1.47;0.57;;;17.90;99.90;;;;;;4908641;29;20471;-69
2023/08/08 12:22:12;;;;;;;0.33;0.33;;;18.00;99.90;;;;;;4890914;29;20482;-68
2023/08/08 12:24:39;;;;;;;0.37;0.37;;;18.00;99.90;;;;;;4893946;29;20499;-68
2023/08/08 12:27:06;;;;;;;2.87;0.40;;;18.10;99.90;;;;;;4897422;29;20957;-69
2023/08/08 12:29:33;;;;;;;0.40;0.40;;;18.20;99.90;;;;;;4898592;29;21123;-70
2023/08/08 12:32:00;;;;;;;0.60;0.30;;;18.20;99.90;;;;;;4891884;29;20474;-70
2023/08/08 12:34:28;;;;;;;3.03;1.00;;;18.20;99.90;;;;;;4897030;29;20469;-69
2023/08/08 12:36:54;;;;;;;0.47;0.47;;;17.90;99.90;;;;;;4904433;29;20501;-70
2023/08/08 12:39:22;;;;;;;1.13;0.50;;;17.80;99.90;;;;;;4897264;29;20473;-70
2023/08/08 12:41:48;;;;;;;0.40;0.40;;;17.60;99.90;;;;;;4897100;29;20474;-70
2023/08/08 12:44:15;;;;;;;0.40;0.40;;;17.50;99.90;;;;;;4891252;29;20498;-71
2023/08/08 12:46:42;;;;;;;0.30;0.30;;;17.50;99.90;;;;;;4893524;29;21066;-70
2023/08/08 12:49:09;;;;;;;0.40;0.40;;;17.60;99.90;;;;;;4887405;29;20847;-70
2023/08/08 12:51:37;;;;;;;0.47;0.47;;;17.70;99.90;;;;;;4889292;29;20480;-70
2023/08/08 12:54:04;;;;;;;1.50;0.30;;;17.80;99.90;;;;;;4894134;29;20480;-69
2023/08/08 12:56:30;;;;;;;1.70;0.40;;;17.80;99.90;;;;;;4898679;29;20247;-70
2023/08/08 12:58:57;;;;;;;0.40;0.40;;;17.80;99.90;;;;;;4904037;29;20470;-70
2023/08/08 13:01:24;;;;;;;0.30;0.30;;;17.90;99.90;;;;;;4891869;29;20487;-69
2023/08/08 13:03:51;;;;;;;0.20;0.20;;;18.00;99.90;;;;;;4905743;29;20485;-72
2023/08/08 13:06:17;;;;;;;0.40;0.40;;;18.00;99.90;;;;;;4900596;29;20497;-69
2023/08/08 13:08:45;;;;;;;0.50;0.50;;;18.20;99.90;;;;;;4901318;29;20962;-70
2023/08/08 13:11:12;;;;;;;0.40;0.40;;;18.30;99.90;;;;;;4897967;29;20479;-70
2023/08/08 13:13:39;;;;;;;0.70;0.70;;;18.40;99.90;;;;;;4892018;29;20476;-71
2023/08/08 13:16:05;;;;;;;0.40;0.40;;;18.50;99.90;;;;;;4905663;29;20503;-69
2023/08/08 13:18:32;;;;;;;0.97;0.43;;;18.60;99.90;;;;;;4906635;29;20481;-71
2023/08/08 13:20:59;;;;;;;0.50;0.50;;;18.70;99.90;;;;;;4901342;29;20993;-70
2023/08/08 13:23:26;;;;;;;0.30;0.30;;;18.80;99.90;;;;;;4894077;29;20469;-69
2023/08/08 13:25:54;;;;;;;0.20;0.20;;;18.80;99.90;;;;;;4900446;29;20540;-70
2023/08/08 13:28:21;;;;;;;0.53;0.50;;;18.60;99.90;;;;;;4894450;29;20476;-70
2023/08/08 13:30:48;;;;;;;2.13;0.40;;;18.50;99.90;;;;;;4901745;29;20511;-69
2023/08/08 13:33:14;;;;;;;1.70;0.43;;;18.50;99.90;;;;;;4885786;29;20483;-71
2023/08/08 13:35:41;;;;;;;0.30;0.30;;;18.60;99.90;;;;;;4888991;29;20480;-69
2023/08/08 13:38:14;;;;;;;0.50;0.50;;;18.50;99.90;;;;;;4892523;29;20496;-72
2023/08/08 13:40:41;;;;;;;4.43;0.30;;;18.60;99.90;;;;;;4892923;29;20476;-69
2023/08/08 13:43:09;;;;;;;0.30;0.30;;;18.60;99.90;;;;;;4894220;29;21021;-68
2023/08/08 13:45:36;;;;;;;0.70;0.50;;;18.70;99.90;;;;;;4894723;29;20526;-69
2023/08/08 13:48:03;;;;;;;0.37;0.27;;;18.40;99.90;;;;;;4890652;29;20508;-73
2023/08/08 13:50:30;;;;;;;0.20;0.20;;;18.20;99.90;;;;;;4886613;29;20997;-70
2023/08/08 13:52:56;;;;;;;0.40;0.33;;;18.20;99.90;;;;;;4886491;29;20490;-68
2023/08/08 13:55:23;;;;;;;0.30;0.30;;;18.10;99.90;;;;;;4885995;29;20472;-71
2023/08/08 13:57:50;;;;;;;2.43;0.20;;;18.10;99.90;;;;;;4894541;29;20494;-70
2023/08/08 14:00:18;;;;;;;0.27;0.27;;;18.10;99.90;;;;;;4900201;29;20479;-70
2023/08/08 14:02:45;;;;;;;0.30;0.30;;;18.10;99.90;;;;;;4889292;29;21322;-70
2023/08/08 14:05:11;;;;;;;0.90;0.40;;;18.10;99.90;;;;;;4891339;29;20503;-74
2023/08/08 14:07:38;;;;;;;0.50;0.30;;;18.20;99.90;;;;;;4887023;29;20578;-69
2023/08/08 14:10:06;;;;;;;0.30;0.30;;;18.30;99.90;;;;;;4892348;29;20207;-68
2023/08/08 14:12:33;;;;;;;0.43;0.43;;;18.30;99.90;;;;;;4892671;29;20549;-70
2023/08/08 14:14:59;;;;;;;0.60;0.60;;;18.50;99.90;;;;;;4895337;29;20978;-70
2023/08/08 14:17:27;;;;;;;0.50;0.50;;;18.50;99.90;;;;;;4912441;29;20503;-70
2023/08/08 14:19:54;;;;;;;0.30;0.30;;;18.50;99.90;;;;;;4912118;29;20509;-69
2023/08/08 14:22:21;;;;;;;0.37;0.37;;;18.50;99.90;;;;;;4903320;29;20479;-69
2023/08/08 14:24:48;;;;;;;0.40;0.40;;;18.50;99.90;;;;;;4898695;29;20495;-70
2023/08/08 14:27:14;;;;;;;0.20;0.20;;;18.50;99.90;;;;;;4896994;29;20585;-71
2023/08/08 14:29:41;;;;;;;0.40;0.40;;;18.60;99.90;;;;;;4904555;29;20573;-69
2023/08/08 14:32:07;;;;;;;0.70;0.70;;;18.70;99.90;;;;;;4905918;29;20482;-69
2023/08/08 14:34:37;;;;;;;4.40;0.70;;;18.80;99.90;;;;;;4904728;29;20478;-71
2023/08/08 14:37:04;;;;;;;0.50;0.50;;;18.80;99.90;;;;;;4901402;29;20495;-70
2023/08/08 14:39:31;;;;;;;0.40;0.40;;;18.80;99.90;;;;;;4899489;29;20475;-70
2023/08/08 14:41:58;;;;;;;0.40;0.40;;;18.90;99.90;;;;;;4893809;29;20482;-69
2023/08/08 14:44:25;;;;;;;0.30;0.30;;;19.00;99.90;;;;;;4899344;29;20470;-69
2023/08/08 14:46:52;;;;;;;0.30;0.30;;;19.00;99.90;;;;;;4902742;29;20498;-69
2023/08/08 14:49:18;;;;;;;0.30;0.30;;;19.10;99.90;;;;;;4894091;29;20486;-71
2023/08/08 14:51:47;;;;;;;0.40;0.40;;;19.10;99.90;;;;;;4897074;29;20506;-68
2023/08/08 14:54:13;;;;;;;0.63;0.47;;;19.30;99.90;;;;;;4905920;29;21212;-70
2023/08/08 14:56:40;;;;;;;0.27;0.27;;;19.30;99.90;;;;;;4909363;29;20478;-69
2023/08/08 14:59:07;;;;;;;0.30;0.30;;;19.40;99.90;;;;;;4904153;29;20477;-69
2023/08/08 15:01:33;;;;;;;0.60;0.30;;;19.40;99.90;;;;;;4903745;29;20472;-68
2023/08/08 15:04:00;;;;;;;0.40;0.40;;;19.30;99.90;;;;;;4895169;29;20464;-67
2023/08/08 15:06:27;;;;;;;1.47;0.63;;;18.90;99.90;;;;;;4899868;29;20581;-69
2023/08/08 15:08:55;;;;;;;0.73;0.70;;;18.40;99.90;;;;;;4903890;29;20479;-70
2023/08/08 15:11:22;;;;;;;0.73;0.50;;;18.00;99.90;;;;;;4905066;29;20471;-69
2023/08/08 15:13:48;;;;;;;0.73;0.73;;;17.80;99.90;;;;;;4915738;29;20466;-68
2023/08/08 15:16:15;;;;;;;2.40;0.60;;;17.80;99.90;;;;;;4904569;29;20500;-68
2023/08/08 15:18:42;;;;;;;0.40;0.40;;;17.90;99.90;;;;;;4896437;29;20514;-68
2023/08/08 15:21:08;;;;;;;1.13;0.30;;;17.80;99.90;;;;;;4903650;29;20467;-69
2023/08/08 15:23:35;;;;;;;0.77;0.77;;;17.80;99.90;;;;;;4904578;29;21112;-69
2023/08/08 15:26:03;;;;;;;1.17;0.40;;;17.90;99.90;;;;;;4896980;29;20856;-69
2023/08/08 15:28:30;;;;;;;0.30;0.30;;;18.00;99.90;;;;;;4896646;29;20490;-69
2023/08/08 15:30:56;;;;;;;2.10;0.50;;;18.10;99.90;;;;;;4904830;29;20472;-69
2023/08/08 15:33:23;;;;;;;0.60;0.60;;;18.20;99.90;;;;;;4907480;29;20475;-69
2023/08/08 15:35:50;;;;;;;0.63;0.63;;;18.20;99.90;;;;;;4901338;29;20475;-71
2023/08/08 15:38:17;;;;;;;5.83;0.70;;;18.20;99.90;;;;;;4906851;29;20478;-69
2023/08/08 15:40:43;;;;;;;0.87;0.60;;;18.10;99.90;;;;;;4895050;29;20482;-70
2023/08/08 15:43:11;;;;;;;1.07;0.50;;;18.20;99.90;;;;;;4897334;29;20475;-71
2023/08/08 15:45:38;;;;;;;1.03;0.60;;;18.40;99.90;;;;;;4901973;29;20506;-71
2023/08/08 15:48:05;;;;;;;2.50;0.43;;;18.50;99.90;;;;;;4903166;29;20495;-69
2023/08/08 15:50:32;;;;;;;4.43;0.50;;;18.70;99.90;;;;;;4899086;29;20485;-71
2023/08/08 15:53:01;;;;;;;0.47;0.47;;;18.80;99.90;;;;;;4898750;29;21017;-70
2023/08/08 15:55:28;;;;;;;0.50;0.50;;;18.80;99.90;;;;;;4894493;29;20943;-69
2023/08/08 15:57:54;;;;;;;1.07;0.47;;;18.70;99.90;;;;;;4891037;29;20495;-70
2023/08/08 16:00:22;;;;;;;1.03;0.57;;;18.60;99.90;;;;;;4903133;29;20487;-71
2023/08/08 16:02:49;;;;;;;0.30;0.30;;;18.50;99.90;;;;;;4900052;29;20467;-72
2023/08/08 16:05:16;;;;;;;4.43;0.50;;;18.40;99.90;;;;;;4901938;29;20476;-70
2023/08/08 16:07:43;;;;;;;0.30;0.30;;;18.40;99.90;;;;;;4895465;29;20500;-71
2023/08/08 16:10:10;;;;;;;0.40;0.40;;;18.40;99.90;;;;;;4895618;29;20475;-70
2023/08/08 16:12:37;;;;;;;0.50;0.50;;;18.30;99.90;;;;;;4894763;29;20471;-71
2023/08/08 16:15:04;;;;;;;1.03;0.70;;;18.30;99.90;;;;;;4890303;29;20521;-71
2023/08/08 16:17:32;;;;;;;0.30;0.30;;;18.20;99.90;;;;;;4895814;29;20495;-71
2023/08/08 16:19:59;;;;;;;1.20;0.40;;;18.40;99.90;;;;;;4895430;29;20478;-71
2023/08/08 16:22:26;;;;;;;3.17;0.67;;;18.50;99.90;;;;;;4895812;29;20499;-69
2023/08/08 16:24:53;;;;;;;3.17;0.60;;;18.50;99.90;;;;;;4895998;29;20475;-70
2023/08/08 16:27:20;;;;;;;0.50;0.50;;;18.60;99.90;;;;;;4895535;29;20590;-70
2023/08/08 16:29:47;;;;;;;1.13;0.30;;;18.70;99.90;;;;;;4891510;29;20487;-71
2023/08/08 16:32:13;;;;;;;0.97;0.60;;;18.60;99.90;;;;;;4903340;29;20875;-71
2023/08/08 16:34:41;;;;;;;0.30;0.30;;;18.50;99.90;;;;;;4895502;29;20494;-71
2023/08/08 16:37:08;;;;;;;0.30;0.30;;;18.30;99.90;;;;;;4883122;29;20496;-68
2023/08/08 16:39:35;;;;;;;0.30;0.30;;;18.00;99.90;;;;;;4876888;29;20468;-70
2023/08/08 16:42:02;;;;;;;0.20;0.20;;;17.60;99.90;;;;;;4877403;29;20465;-71
2023/08/08 16:44:29;;;;;;;0.30;0.30;;;17.30;99.90;;;;;;4899489;29;20482;-69
2023/08/08 16:46:56;;;;;;;0.70;0.70;;;17.20;99.90;;;;;;4906892;29;20494;-70
2023/08/08 16:49:23;;;;;;;0.90;0.60;;;17.10;99.90;;;;;;4906347;29;20467;-69